Flight Track Log - Related Links

Times and Time Zones

All times are in EDT time to prevent confusion due to time zone crossing. See the RPA4946 flight status page for this flight to view local times or setup timezone preferences in your user account.

Time Position Orientation Groundspeed Altitude Reporting Facility
EDT Latitude Longitude Course Direction KTS MPH feet Rate Location/Type
Fri 08:45:12 AM 38.9500 -77.5167 212° Southwest 181 208 1,400  Level Potomac TRACON
Fri 08:46:06 AM 38.9167 -77.5667 229° Southwest 204 235 3,000 1,895 Climbing Potomac TRACON
Fri 08:47:06 AM 38.8833 -77.6333 237° Southwest 224 258 5,000 1,950 Climbing Potomac TRACON
Fri 08:48:00 AM 38.5910 -77.6671 208° Southwest  Level FlightAware Approximate
Fri 08:48:06 AM 38.8500 -77.6833 229° Southwest 235 270 6,900  Level Potomac TRACON
Fri 08:49:00 AM 38.5015 -77.7159 201° Southwest  Level FlightAware Approximate
Fri 08:49:09 AM 38.7839 -77.7275 208° Southwest 267 307 7,000  Level Washington Center
Fri 08:50:00 AM 38.4187 -77.7817 212° Southwest  Level FlightAware Approximate
Fri 08:50:09 AM 38.7144 -77.7628 202° Southwest 272 313 7,600  Level Washington Center
Fri 08:51:10 AM 38.6450 -77.8058 206° Southwest 277 319 8,300 1,041 Climbing Washington Center
Fri 08:52:10 AM 38.5714 -77.8436 202° Southwest 287 330 9,700 534 Climbing Washington Center
Fri 08:54:21 AM 38.3964 -77.9442 204° Southwest 327 376 10,000 344 Climbing Washington Center
Fri 08:55:22 AM 38.3142 -77.9867 202° Southwest 327 376 10,800 1,131 Climbing Washington Center
Fri 08:56:23 AM 38.2381 -78.0317 205° Southwest 320 368 12,300 1,424 Climbing Washington Center
Fri 08:57:20 AM 38.1558 -78.0767 203° Southwest 310 357 13,600 1,271 Climbing Washington Center
Fri 08:58:21 AM 38.0800 -78.1189 204° Southwest 298 343 14,800 1,082 Climbing Washington Center
Fri 08:59:22 AM 38.0125 -78.1508 200° South 298 343 15,800 590 Climbing Washington Center
Fri 09:00:23 AM 37.9406 -78.2039 210° Southwest 298 343 16,000 101 Climbing Washington Center
Fri 09:01:21 AM 37.8600 -78.2589 208° Southwest 317 365 16,000  Level Washington Center
Fri 09:02:22 AM 37.7647 -78.3186 206° Southwest 336 387 16,000  Level Washington Center
Fri 09:03:22 AM 37.6800 -78.3733 207° Southwest 346 398 16,000  Level Washington Center
Fri 09:04:21 AM 37.5911 -78.4303 207° Southwest 351 404 16,000  Level Washington Center
Fri 09:05:21 AM 37.5042 -78.4872 207° Southwest 351 404 16,000 50 Level Washington Center
Fri 09:06:22 AM 37.4258 -78.5364 206° Southwest 351 404 16,100 49 Climbing Washington Center
Fri 09:07:23 AM 37.3369 -78.5958 208° Southwest 356 410 16,100  Level Washington Center
Fri 09:08:20 AM 37.2456 -78.6522 206° Southwest 356 410 16,100  Level Washington Center
Fri 09:09:21 AM 37.1567 -78.7086 207° Southwest 356 410 16,100 -50 Level Washington Center
Fri 09:10:21 AM 37.0592 -78.7697 207° Southwest 356 410 16,000 -149 Descending Washington Center
Fri 09:11:22 AM 36.9700 -78.8258 207° Southwest 356 410 15,800 -800 Descending Washington Center
Fri 09:12:21 AM 36.8828 -78.8844 208° Southwest 356 410 14,400 -1,613 Descending Washington Center
Fri 09:13:21 AM 36.7978 -78.9381 207° Southwest 356 410 12,600 -1,785 Descending Washington Center
Fri 09:14:22 AM 36.7236 -78.9839 206° Southwest 351 404 10,800 -1,230 Descending Washington Center
Fri 09:15:23 AM 36.6414 -79.0114 195° South 321 369 10,100 -347 Descending Washington Center
Fri 09:16:23 AM 36.5503 -78.9867 168° South 321 369 10,100 -60 Level Washington Center
Fri 09:17:03 AM 36.4842 -78.9606 162° South 326 375 10,000 -60 Descending Washington Center
Fri 09:18:03 AM 36.3953 -78.9361 168° South 327 376 10,000 -50 Level Washington Center
Fri 09:19:04 AM 36.3061 -78.9117 168° South 325 374 9,900 -843 Descending Washington Center
Fri 09:20:04 AM 36.2233 -78.8850 165° South 284 327 8,300 -942 Descending Washington Center
Fri 09:21:05 AM 36.1550 -78.8694 170° South 249 287 8,000 -793 Descending Washington Center
Fri 09:22:05 AM 36.0867 -78.8486 166° South 233 268 6,700 -1,400 Descending Washington Center
Fri 09:23:05 AM 36.0247 -78.8306 167° South 229 264 5,200 -1,339 Descending Washington Center
Fri 09:24:06 AM 35.9678 -78.8486 194° South 228 262 4,000 -595 Descending Washington Center
Fri 09:25:06 AM 35.9247 -78.8983 223° Southwest 210 242 4,000  Level Washington Center
Fri 09:26:08 AM 35.8794 -78.9478 222° Southwest 207 238 4,000  Level Washington Center
Fri 09:27:09 AM 35.8322 -78.9969 220° Southwest 213 245 4,000  Level Washington Center
Fri 09:28:10 AM 35.7892 -79.0464 223° Southwest 212 244 4,000 -496 Level Washington Center
Fri 09:29:10 AM 35.7417 -79.0264 161° South 200 230 3,000 -496 Descending Washington Center
Fri 09:30:11 AM 35.7308 -78.9694 103° East 195 224 3,000 -98 Level Washington Center
Fri 09:31:12 AM 35.7678 -78.9147 50° Northeast 185 213 2,800 -393 Descending Washington Center
Fri 09:32:13 AM 35.7958 -78.8853 40° Northeast 126 145 2,200 -655 Descending Washington Center
Fri 09:33:11 AM 35.8197 -78.8503 50° Northeast 122 140 1,500 -689 Descending Washington Center
Fri 09:34:15 AM 35.8475 -78.8183 43° Northeast 131 151 800 -656 Descending Washington Center

Login

Don't have an account? Register now (free) for customized features, flight alerts, and more!